Wetterdaten: Woche 09.10.17 - 15.10.17 (KW41)
Datum Zeit Temp. A. Feuchte A. Luftdruck Regen Wind Richtung Taupunkt Windchill Windben
09.10.2017 00:00 8,7 C 96 % 1020,3 hPa 0,0 l/m 0,2 km/h (0 Bft) O-NO 8,1 C 8,7 C 1,6 km/h (1 Bft)
09.10.2017 01:00 8,3 C 96 % 1020,4 hPa 0,0 l/m 0,1 km/h (0 Bft) O-NO 7,7 C 8,3 C 1,5 km/h (1 Bft)
09.10.2017 02:00 7,7 C 96 % 1020,2 hPa 0,0 l/m 0,0 km/h (0 Bft) O 7,0 C 7,7 C 0,4 km/h (0 Bft)
09.10.2017 03:00 7,5 C 97 % 1019,9 hPa 0,0 l/m 0,0 km/h (0 Bft) O-NO 7,1 C 7,5 C 0,4 km/h (0 Bft)
09.10.2017 04:00 7,3 C 97 % 1019,9 hPa 0,0 l/m 0,1 km/h (0 Bft) O-SO 6,9 C 7,3 C 1,2 km/h (1 Bft)
09.10.2017 05:00 6,6 C 97 % 1020,0 hPa 0,0 l/m 0,1 km/h (0 Bft) O-SO 6,1 C 6,6 C 0,7 km/h (0 Bft)
09.10.2017 06:00 6,6 C 97 % 1020,0 hPa 0,0 l/m 0,0 km/h (0 Bft) O-SO 6,2 C 6,6 C 0,0 km/h (0 Bft)
09.10.2017 07:00 7,1 C 98 % 1020,1 hPa 0,0 l/m 0,0 km/h (0 Bft) O-SO 6,8 C 7,1 C 0,3 km/h (0 Bft)
09.10.2017 08:00 7,5 C 98 % 1020,4 hPa 0,0 l/m 0,0 km/h (0 Bft) O-SO 7,2 C 7,5 C 0,4 km/h (0 Bft)
09.10.2017 09:00 8,8 C 98 % 1020,6 hPa 0,0 l/m 0,3 km/h (0 Bft) O-SO 8,5 C 8,8 C 1,7 km/h (1 Bft)
09.10.2017 10:00 10,0 C 94 % 1020,6 hPa 0,0 l/m 0,8 km/h (0 Bft) O-NO 9,1 C 10,0 C 4,1 km/h (1 Bft)
09.10.2017 11:00 10,3 C 91 % 1020,8 hPa 0,8 l/m 1,2 km/h (1 Bft) S 9,0 C 10,3 C 2,7 km/h (1 Bft)
09.10.2017 12:00 10,5 C 92 % 1020,8 hPa 0,3 l/m 1,2 km/h (1 Bft) O 9,3 C 10,5 C 3,6 km/h (1 Bft)
09.10.2017 13:00 10,8 C 92 % 1020,6 hPa 0,3 l/m 1,3 km/h (1 Bft) NO 9,6 C 10,8 C 4,8 km/h (1 Bft)
09.10.2017 14:00 11,1 C 91 % 1020,3 hPa 0,0 l/m 1,7 km/h (1 Bft) O-NO 9,6 C 11,1 C 5,3 km/h (1 Bft)
09.10.2017 15:00 10,9 C 90 % 1020,1 hPa 0,3 l/m 1,4 km/h (1 Bft) O-NO 9,2 C 10,9 C 4,5 km/h (1 Bft)
09.10.2017 16:00 10,7 C 92 % 1020,0 hPa 0,0 l/m 1,0 km/h (0 Bft) NO 9,4 C 10,7 C 4,1 km/h (1 Bft)
09.10.2017 17:00 10,4 C 91 % 1019,8 hPa 0,0 l/m 1,8 km/h (1 Bft) O-NO 9,0 C 10,4 C 5,7 km/h (2 Bft)
09.10.2017 18:00 9,6 C 92 % 1020,1 hPa 0,0 l/m 0,7 km/h (0 Bft) O-NO 8,3 C 9,6 C 2,9 km/h (1 Bft)
09.10.2017 19:00 9,2 C 95 % 1020,3 hPa 0,0 l/m 0,1 km/h (0 Bft) O-NO 8,4 C 9,2 C 0,8 km/h (0 Bft)
09.10.2017 20:00 8,9 C 96 % 1020,5 hPa 0,0 l/m 0,0 km/h (0 Bft) O-NO 8,2 C 8,9 C 0,4 km/h (0 Bft)
09.10.2017 21:00 8,7 C 96 % 1020,3 hPa 0,0 l/m 0,3 km/h (0 Bft) O-NO 8,1 C 8,7 C 2,7 km/h (1 Bft)
09.10.2017 22:00 7,8 C 95 % 1020,2 hPa 0,0 l/m 0,5 km/h (0 Bft) O-NO 7,0 C 7,8 C 2,3 km/h (1 Bft)
09.10.2017 23:00 6,7 C 95 % 1020,2 hPa 0,0 l/m 0,4 km/h (0 Bft) O 6,0 C 6,7 C 1,4 km/h (1 Bft)
10.10.2017 00:00 6,0 C 96 % 1020,1 hPa 0,0 l/m 0,0 km/h (0 Bft) O 5,3 C 6,0 C 0,0 km/h (0 Bft)
10.10.2017 01:00 5,9 C 97 % 1020,0 hPa 0,0 l/m 0,0 km/h (0 Bft) O 5,5 C 5,9 C 0,0 km/h (0 Bft)
10.10.2017 02:00 6,2 C 98 % 1019,8 hPa 0,0 l/m 0,4 km/h (0 Bft) O 5,9 C 6,2 C 2,1 km/h (1 Bft)
10.10.2017 03:00 5,7 C 96 % 1019,6 hPa 0,0 l/m 0,0 km/h (0 Bft) O-NO 5,2 C 5,7 C 0,5 km/h (0 Bft)
10.10.2017 04:00 5,0 C 97 % 1019,4 hPa 0,0 l/m 0,1 km/h (0 Bft) O-NO 4,6 C 5,0 C 1,3 km/h (1 Bft)
10.10.2017 05:00 4,8 C 97 % 1019,4 hPa 0,0 l/m 0,0 km/h (0 Bft) O-NO 4,4 C 4,8 C 0,0 km/h (0 Bft)
10.10.2017 06:00 5,0 C 97 % 1019,3 hPa 0,0 l/m 0,8 km/h (0 Bft) O-NO 4,6 C 5,0 C 2,4 km/h (1 Bft)
10.10.2017 07:00 7,3 C 98 % 1019,3 hPa 0,0 l/m 2,7 km/h (1 Bft) O 6,9 C 7,3 C 6,1 km/h (2 Bft)
10.10.2017 08:00 7,5 C 96 % 1019,5 hPa 0,0 l/m 0,7 km/h (0 Bft) O 6,9 C 7,5 C 3,1 km/h (1 Bft)
10.10.2017 09:00 8,6 C 95 % 1019,7 hPa 0,0 l/m 3,5 km/h (1 Bft) O-NO 7,8 C 8,6 C 9,2 km/h (2 Bft)
10.10.2017 10:00 9,6 C 91 % 1020,0 hPa 0,0 l/m 4,6 km/h (1 Bft) O-NO 8,2 C 9,6 C 11,8 km/h (2 Bft)
10.10.2017 11:00 9,8 C 91 % 1020,5 hPa 0,0 l/m 4,4 km/h (1 Bft) O-NO 8,4 C 9,8 C 10,5 km/h (2 Bft)
10.10.2017 12:00 9,4 C 94 % 1020,6 hPa 0,0 l/m 4,5 km/h (1 Bft) NO 8,5 C 9,4 C 9,3 km/h (2 Bft)
10.10.2017 13:00 10,2 C 93 % 1020,5 hPa 0,0 l/m 4,0 km/h (1 Bft) N-NO 9,1 C 10,2 C 10,6 km/h (2 Bft)
10.10.2017 14:00 10,6 C 93 % 1020,2 hPa 0,0 l/m 4,3 km/h (1 Bft) O-NO 9,5 C 10,6 C 12,5 km/h (2 Bft)
10.10.2017 15:00 11,8 C 89 % 1020,1 hPa 0,0 l/m 3,9 km/h (1 Bft) O 10,1 C 11,8 C 10,3 km/h (2 Bft)
10.10.2017 16:00 12,1 C 87 % 1020,3 hPa 0,0 l/m 1,9 km/h (1 Bft) O 10,0 C 12,1 C 6,1 km/h (2 Bft)
10.10.2017 17:00 11,6 C 91 % 1020,4 hPa 0,0 l/m 0,7 km/h (0 Bft) NO 10,2 C 11,6 C 3,5 km/h (1 Bft)
10.10.2017 18:00 11,0 C 95 % 1020,8 hPa 0,3 l/m 0,3 km/h (0 Bft) N-NO 10,2 C 11,0 C 1,9 km/h (1 Bft)
10.10.2017 19:00 10,8 C 96 % 1021,2 hPa 0,0 l/m 0,0 km/h (0 Bft) N-NO 10,2 C 10,8 C 0,0 km/h (0 Bft)
10.10.2017 20:00 10,5 C 96 % 1021,3 hPa 0,0 l/m 0,0 km/h (0 Bft) N-NO 9,9 C 10,5 C 0,0 km/h (0 Bft)
10.10.2017 21:00 10,2 C 96 % 1021,4 hPa 0,0 l/m 0,2 km/h (0 Bft) O-NO 9,7 C 10,2 C 0,5 km/h (0 Bft)
10.10.2017 22:00 9,8 C 97 % 1021,4 hPa 0,0 l/m 0,0 km/h (0 Bft) O-NO 9,3 C 9,8 C 0,0 km/h (0 Bft)
10.10.2017 23:00 9,6 C 97 % 1021,4 hPa 0,0 l/m 0,0 km/h (0 Bft) O-NO 9,2 C 9,6 C 0,0 km/h (0 Bft)
11.10.2017 00:00 9,4 C 97 % 1021,2 hPa 0,0 l/m 0,0 km/h (0 Bft) O-NO 8,9 C 9,4 C 0,0 km/h (0 Bft)
11.10.2017 01:00 8,9 C 97 % 1021,0 hPa 0,0 l/m 0,0 km/h (0 Bft) O-NO 8,4 C 8,9 C 0,3 km/h (0 Bft)
11.10.2017 02:00 8,4 C 97 % 1020,9 hPa 0,0 l/m 0,0 km/h (0 Bft) O-NO 8,0 C 8,4 C 0,3 km/h (0 Bft)
11.10.2017 03:00 8,2 C 97 % 1020,8 hPa 0,0 l/m 0,0 km/h (0 Bft) O-NO 7,8 C 8,2 C 0,0 km/h (0 Bft)
11.10.2017 04:00 8,1 C 98 % 1020,7 hPa 0,0 l/m 0,0 km/h (0 Bft) O-NO 7,8 C 8,1 C 0,0 km/h (0 Bft)
11.10.2017 05:00 8,4 C 98 % 1020,7 hPa 0,0 l/m 0,0 km/h (0 Bft) O-NO 8,1 C 8,4 C 0,0 km/h (0 Bft)
11.10.2017 06:00 8,3 C 98 % 1020,7 hPa 0,0 l/m 0,0 km/h (0 Bft) O-NO 8,0 C 8,3 C 0,0 km/h (0 Bft)
11.10.2017 07:00 8,3 C 98 % 1020,7 hPa 0,0 l/m 0,0 km/h (0 Bft) O-NO 8,0 C 8,3 C 0,0 km/h (0 Bft)
11.10.2017 08:00 8,7 C 98 % 1021,0 hPa 0,0 l/m 0,0 km/h (0 Bft) O-NO 8,4 C 8,7 C 0,4 km/h (0 Bft)
11.10.2017 09:00 9,7 C 98 % 1021,1 hPa 0,0 l/m 0,1 km/h (0 Bft) O-NO 9,4 C 9,7 C 0,7 km/h (0 Bft)
11.10.2017 10:00 12,1 C 93 % 1021,1 hPa 0,0 l/m 3,6 km/h (1 Bft) O-NO 10,9 C 12,1 C 8,8 km/h (2 Bft)
11.10.2017 11:00 14,6 C 82 % 1020,9 hPa 0,0 l/m 5,4 km/h (2 Bft) O-NO 11,6 C 14,5 C 11,6 km/h (2 Bft)
11.10.2017 12:00 16,0 C 75 % 1020,4 hPa 0,3 l/m 5,6 km/h (2 Bft) O-NO 11,5 C 15,8 C 10,3 km/h (2 Bft)
11.10.2017 13:00 17,2 C 69 % 1019,9 hPa 0,0 l/m 6,0 km/h (2 Bft) O-NO 11,4 C 16,9 C 11,4 km/h (2 Bft)
11.10.2017 14:00 18,0 C 65 % 1019,4 hPa 0,0 l/m 5,1 km/h (1 Bft) O-NO 11,3 C 17,9 C 9,7 km/h (2 Bft)
11.10.2017 15:00 18,6 C 62 % 1018,9 hPa 0,0 l/m 4,5 km/h (1 Bft) O-NO 11,2 C 18,6 C 8,3 km/h (2 Bft)
11.10.2017 16:00 18,4 C 62 % 1018,6 hPa 0,0 l/m 4,6 km/h (1 Bft) O-NO 11,0 C 18,3 C 9,3 km/h (2 Bft)
11.10.2017 17:00 17,6 C 64 % 1018,4 hPa 0,0 l/m 2,7 km/h (1 Bft) O-NO 10,8 C 17,6 C 5,2 km/h (1 Bft)
11.10.2017 18:00 14,1 C 79 % 1018,4 hPa 0,0 l/m 0,1 km/h (0 Bft) N 10,4 C 14,1 C 0,6 km/h (0 Bft)
11.10.2017 19:00 10,6 C 89 % 1018,6 hPa 0,0 l/m 0,0 km/h (0 Bft) N 8,8 C 10,6 C 0,0 km/h (0 Bft)
11.10.2017 20:00 8,8 C 93 % 1018,9 hPa 0,0 l/m 0,0 km/h (0 Bft) N 7,7 C 8,8 C 0,0 km/h (0 Bft)
11.10.2017 21:00 8,0 C 94 % 1019,1 hPa 0,0 l/m 0,0 km/h (0 Bft) O-NO 7,1 C 8,0 C 0,0 km/h (0 Bft)
11.10.2017 22:00 7,2 C 96 % 1019,5 hPa 0,0 l/m 0,0 km/h (0 Bft) O-NO 6,6 C 7,2 C 0,0 km/h (0 Bft)
11.10.2017 23:00 7,0 C 96 % 1019,9 hPa 0,0 l/m 0,1 km/h (0 Bft) O-NO 6,3 C 7,0 C 0,8 km/h (0 Bft)
12.10.2017 00:00 6,4 C 96 % 1020,0 hPa 0,0 l/m 0,0 km/h (0 Bft) O-NO 5,8 C 6,4 C 0,2 km/h (0 Bft)
12.10.2017 01:00 6,2 C 97 % 1020,0 hPa 0,0 l/m 0,0 km/h (0 Bft) O-NO 5,7 C 6,2 C 0,0 km/h (0 Bft)
12.10.2017 02:00 6,5 C 96 % 1020,1 hPa 0,0 l/m 0,0 km/h (0 Bft) O-NO 6,0 C 6,5 C 0,3 km/h (0 Bft)
12.10.2017 03:00 5,9 C 96 % 1019,9 hPa 0,0 l/m 0,0 km/h (0 Bft) O-NO 5,4 C 5,9 C 0,0 km/h (0 Bft)
12.10.2017 04:00 5,4 C 96 % 1020,1 hPa 0,0 l/m 0,0 km/h (0 Bft) O-NO 4,8 C 5,4 C 0,0 km/h (0 Bft)
12.10.2017 05:00 5,2 C 97 % 1020,2 hPa 0,0 l/m 0,1 km/h (0 Bft) O-NO 4,8 C 5,2 C 0,7 km/h (0 Bft)
12.10.2017 06:00 5,7 C 98 % 1020,2 hPa 0,0 l/m 0,3 km/h (0 Bft) S-SO 5,3 C 5,7 C 1,6 km/h (1 Bft)
12.10.2017 07:00 7,0 C 98 % 1020,7 hPa 0,0 l/m 0,8 km/h (0 Bft) NO 6,7 C 7,0 C 4,5 km/h (1 Bft)
12.10.2017 08:00 10,1 C 95 % 1021,6 hPa 0,0 l/m 1,7 km/h (1 Bft) O-NO 9,3 C 10,1 C 6,3 km/h (2 Bft)
12.10.2017 09:00 11,7 C 90 % 1022,9 hPa 0,0 l/m 2,5 km/h (1 Bft) O-NO 10,1 C 11,7 C 8,0 km/h (2 Bft)
12.10.2017 10:00 12,6 C 88 % 1023,7 hPa 0,0 l/m 3,2 km/h (1 Bft) O-NO 10,6 C 12,6 C 10,1 km/h (2 Bft)
12.10.2017 11:00 13,2 C 86 % 1024,4 hPa 0,0 l/m 4,2 km/h (1 Bft) O-NO 10,8 C 13,0 C 11,1 km/h (2 Bft)
12.10.2017 12:00 13,4 C 86 % 1024,8 hPa 0,0 l/m 3,2 km/h (1 Bft) O 11,0 C 13,4 C 8,4 km/h (2 Bft)
12.10.2017 13:00 13,8 C 86 % 1025,3 hPa 0,0 l/m 4,3 km/h (1 Bft) O 11,4 C 13,8 C 12,3 km/h (2 Bft)
12.10.2017 14:00 14,9 C 81 % 1025,3 hPa 0,0 l/m 3,4 km/h (1 Bft) O-NO 11,7 C 14,9 C 9,1 km/h (2 Bft)
12.10.2017 15:00 15,7 C 78 % 1025,2 hPa 0,0 l/m 3,4 km/h (1 Bft) O-NO 11,9 C 15,7 C 9,5 km/h (2 Bft)
12.10.2017 16:00 15,4 C 78 % 1025,2 hPa 0,0 l/m 2,9 km/h (1 Bft) O-NO 11,6 C 15,4 C 8,3 km/h (2 Bft)
12.10.2017 17:00 16,4 C 74 % 1025,1 hPa 0,0 l/m 3,6 km/h (1 Bft) O-NO 11,6 C 16,4 C 9,9 km/h (2 Bft)
12.10.2017 18:00 14,7 C 79 % 1025,5 hPa 0,0 l/m 2,7 km/h (1 Bft) O-NO 11,0 C 14,7 C 7,5 km/h (2 Bft)
12.10.2017 19:00 12,7 C 85 % 1026,0 hPa 0,0 l/m 0,0 km/h (0 Bft) O-SO 10,2 C 12,7 C 0,3 km/h (0 Bft)
12.10.2017 20:00 10,6 C 91 % 1026,4 hPa 0,0 l/m 0,1 km/h (0 Bft) O-SO 9,3 C 10,6 C 0,8 km/h (0 Bft)
12.10.2017 21:00 9,2 C 93 % 1026,8 hPa 0,0 l/m 0,0 km/h (0 Bft) O-SO 8,1 C 9,2 C 0,3 km/h (0 Bft)
12.10.2017 22:00 7,9 C 94 % 1027,1 hPa 0,0 l/m 0,0 km/h (0 Bft) O-SO 7,1 C 7,9 C 0,0 km/h (0 Bft)
12.10.2017 23:00 6,8 C 95 % 1027,5 hPa 0,0 l/m 0,0 km/h (0 Bft) O-SO 6,1 C 6,8 C 0,1 km/h (0 Bft)
13.10.2017 00:00 6,3 C 96 % 1027,6 hPa 0,0 l/m 0,0 km/h (0 Bft) N 5,7 C 6,3 C 0,1 km/h (0 Bft)
13.10.2017 01:00 6,0 C 96 % 1027,7 hPa 0,0 l/m 0,1 km/h (0 Bft) N 5,5 C 6,0 C 0,3 km/h (0 Bft)
13.10.2017 02:00 5,8 C 96 % 1027,9 hPa 0,0 l/m 0,0 km/h (0 Bft) N 5,3 C 5,8 C 0,1 km/h (0 Bft)
13.10.2017 03:00 5,1 C 96 % 1027,7 hPa 0,0 l/m 0,0 km/h (0 Bft) N 4,5 C 5,1 C 0,0 km/h (0 Bft)
13.10.2017 04:00 4,7 C 97 % 1027,6 hPa 0,0 l/m 0,0 km/h (0 Bft) N 4,3 C 4,7 C 0,0 km/h (0 Bft)
13.10.2017 05:00 4,5 C 97 % 1027,6 hPa 0,0 l/m 0,0 km/h (0 Bft) N 4,1 C 4,5 C 0,1 km/h (0 Bft)
13.10.2017 06:00 4,0 C 97 % 1027,7 hPa 0,3 l/m 0,0 km/h (0 Bft) N 3,6 C 4,0 C 0,0 km/h (0 Bft)
13.10.2017 07:00 3,8 C 97 % 1027,8 hPa 0,0 l/m 0,0 km/h (0 Bft) N 3,3 C 3,8 C 0,0 km/h (0 Bft)
13.10.2017 08:00 3,9 C 98 % 1028,1 hPa 0,0 l/m 0,0 km/h (0 Bft) N 3,5 C 3,9 C 0,0 km/h (0 Bft)
13.10.2017 09:00 5,6 C 98 % 1028,4 hPa 0,0 l/m 0,0 km/h (0 Bft) N 5,3 C 5,6 C 0,1 km/h (0 Bft)
13.10.2017 10:00 8,8 C 97 % 1028,6 hPa 0,0 l/m 0,4 km/h (0 Bft) O-SO 8,3 C 8,8 C 1,2 km/h (1 Bft)
13.10.2017 11:00 13,3 C 85 % 1028,5 hPa 0,0 l/m 0,8 km/h (0 Bft) O-SO 10,8 C 13,3 C 2,2 km/h (1 Bft)
13.10.2017 12:00 16,9 C 70 % 1028,1 hPa 0,0 l/m 1,5 km/h (1 Bft) NO 11,5 C 16,9 C 4,1 km/h (1 Bft)
13.10.2017 13:00 18,4 C 63 % 1027,8 hPa 0,0 l/m 2,0 km/h (1 Bft) W-NW 11,2 C 18,4 C 5,5 km/h (2 Bft)
13.10.2017 14:00 19,6 C 58 % 1027,3 hPa 0,0 l/m 2,0 km/h (1 Bft) N-NO 11,1 C 19,6 C 5,6 km/h (2 Bft)
13.10.2017 15:00 20,2 C 54 % 1026,8 hPa 0,0 l/m 2,0 km/h (1 Bft) NO 10,7 C 20,2 C 6,1 km/h (2 Bft)
13.10.2017 16:00 20,7 C 52 % 1026,4 hPa 0,0 l/m 2,2 km/h (1 Bft) O-NO 10,4 C 20,7 C 5,9 km/h (2 Bft)
13.10.2017 17:00 20,3 C 59 % 1026,2 hPa 0,0 l/m 0,6 km/h (0 Bft) O 12,0 C 20,3 C 2,4 km/h (1 Bft)
13.10.2017 18:00 15,4 C 77 % 1026,6 hPa 0,0 l/m 0,1 km/h (0 Bft) O 11,3 C 15,4 C 0,4 km/h (0 Bft)
13.10.2017 19:00 11,3 C 88 % 1027,2 hPa 0,0 l/m 0,0 km/h (0 Bft) N 9,5 C 11,3 C 0,0 km/h (0 Bft)
13.10.2017 20:00 9,7 C 91 % 1027,4 hPa 0,0 l/m 0,0 km/h (0 Bft) N 8,3 C 9,7 C 0,0 km/h (0 Bft)
13.10.2017 21:00 8,4 C 93 % 1027,7 hPa 0,0 l/m 0,0 km/h (0 Bft) N 7,4 C 8,4 C 0,0 km/h (0 Bft)
13.10.2017 22:00 7,7 C 95 % 1027,9 hPa 0,0 l/m 0,0 km/h (0 Bft) N 6,9 C 7,7 C 0,0 km/h (0 Bft)
13.10.2017 23:00 7,1 C 95 % 1027,9 hPa 0,0 l/m 0,0 km/h (0 Bft) N 6,4 C 7,1 C 0,0 km/h (0 Bft)
14.10.2017 00:00 6,8 C 96 % 1027,9 hPa 0,0 l/m 0,0 km/h (0 Bft) O 6,3 C 6,8 C 0,0 km/h (0 Bft)
14.10.2017 01:00 6,2 C 96 % 1028,1 hPa 0,0 l/m 0,0 km/h (0 Bft) O 5,6 C 6,2 C 0,0 km/h (0 Bft)
14.10.2017 02:00 5,6 C 96 % 1028,0 hPa 0,0 l/m 0,0 km/h (0 Bft) O 5,0 C 5,6 C 0,0 km/h (0 Bft)
14.10.2017 03:00 5,3 C 96 % 1027,9 hPa 0,0 l/m 0,0 km/h (0 Bft) O 4,7 C 5,3 C 0,0 km/h (0 Bft)
14.10.2017 04:00 4,6 C 96 % 1027,9 hPa 0,0 l/m 0,0 km/h (0 Bft) O 4,1 C 4,6 C 0,0 km/h (0 Bft)
14.10.2017 05:00 4,0 C 96 % 1028,0 hPa 0,0 l/m 0,0 km/h (0 Bft) O 3,5 C 4,0 C 0,0 km/h (0 Bft)
14.10.2017 06:00 3,8 C 97 % 1028,2 hPa 0,0 l/m 0,0 km/h (0 Bft) O 3,4 C 3,8 C 0,0 km/h (0 Bft)
14.10.2017 07:00 3,3 C 97 % 1028,2 hPa 0,0 l/m 0,0 km/h (0 Bft) O 2,8 C 3,3 C 0,0 km/h (0 Bft)
14.10.2017 08:00 3,6 C 97 % 1028,4 hPa 0,3 l/m 0,0 km/h (0 Bft) O 3,2 C 3,6 C 0,0 km/h (0 Bft)
14.10.2017 09:00 6,5 C 98 % 1028,7 hPa 0,0 l/m 0,0 km/h (0 Bft) O 6,1 C 6,5 C 0,0 km/h (0 Bft)
14.10.2017 10:00 10,6 C 90 % 1028,7 hPa 0,0 l/m 0,0 km/h (0 Bft) O 9,1 C 10,6 C 0,0 km/h (0 Bft)
14.10.2017 11:00 16,4 C 76 % 1028,4 hPa 0,0 l/m 1,4 km/h (1 Bft) NO 12,2 C 16,4 C 2,9 km/h (1 Bft)
14.10.2017 12:00 18,7 C 68 % 1028,1 hPa 0,0 l/m 1,9 km/h (1 Bft) N-NO 12,7 C 18,7 C 5,0 km/h (1 Bft)
14.10.2017 13:00 20,7 C 60 % 1027,4 hPa 0,0 l/m 2,5 km/h (1 Bft) NO 12,6 C 20,7 C 6,5 km/h (2 Bft)
14.10.2017 14:00 22,1 C 52 % 1026,9 hPa 0,0 l/m 1,9 km/h (1 Bft) N-NO 11,8 C 22,1 C 5,9 km/h (2 Bft)
14.10.2017 15:00 22,5 C 48 % 1026,7 hPa 0,0 l/m 1,3 km/h (1 Bft) W-NW 10,8 C 22,5 C 4,8 km/h (1 Bft)
14.10.2017 16:00 22,4 C 50 % 1026,3 hPa 0,0 l/m 1,1 km/h (1 Bft) NW 11,4 C 22,4 C 3,5 km/h (1 Bft)
14.10.2017 17:00 21,5 C 61 % 1026,3 hPa 0,0 l/m 0,1 km/h (0 Bft) NW 13,6 C 21,5 C 0,9 km/h (0 Bft)
14.10.2017 18:00 16,8 C 74 % 1026,4 hPa 0,0 l/m 0,0 km/h (0 Bft) NW 12,1 C 16,8 C 0,8 km/h (0 Bft)
14.10.2017 19:00 12,8 C 86 % 1026,9 hPa 0,0 l/m 0,0 km/h (0 Bft) NW 10,5 C 12,8 C 0,1 km/h (0 Bft)
14.10.2017 20:00 10,7 C 91 % 1027,4 hPa 0,0 l/m 0,0 km/h (0 Bft) NW 9,3 C 10,7 C 0,4 km/h (0 Bft)
14.10.2017 21:00 9,6 C 93 % 1027,7 hPa 0,0 l/m 0,0 km/h (0 Bft) NW 8,5 C 9,6 C 0,1 km/h (0 Bft)
14.10.2017 22:00 8,5 C 94 % 1027,7 hPa 0,0 l/m 0,0 km/h (0 Bft) NW 7,6 C 8,5 C 0,0 km/h (0 Bft)
14.10.2017 23:00 7,7 C 95 % 1027,7 hPa 0,0 l/m 0,0 km/h (0 Bft) NW 6,9 C 7,7 C 0,0 km/h (0 Bft)
15.10.2017 00:00 7,1 C 95 % 1027,7 hPa 0,0 l/m 0,0 km/h (0 Bft) NW 6,4 C 7,1 C 0,0 km/h (0 Bft)
15.10.2017 01:00 6,4 C 96 % 1027,6 hPa 0,0 l/m 0,0 km/h (0 Bft) NW 5,8 C 6,4 C 0,0 km/h (0 Bft)
15.10.2017 02:00 5,8 C 96 % 1027,5 hPa 0,0 l/m 0,0 km/h (0 Bft) NW 5,2 C 5,8 C 0,0 km/h (0 Bft)
15.10.2017 03:00 5,2 C 96 % 1027,2 hPa 0,0 l/m 0,0 km/h (0 Bft) NW 4,6 C 5,2 C 0,0 km/h (0 Bft)
15.10.2017 04:00 4,6 C 96 % 1026,9 hPa 0,0 l/m 0,0 km/h (0 Bft) NW 4,0 C 4,6 C 0,0 km/h (0 Bft)
15.10.2017 05:00 4,2 C 97 % 1027,0 hPa 0,0 l/m 0,0 km/h (0 Bft) NW 3,7 C 4,2 C 0,0 km/h (0 Bft)
15.10.2017 06:00 3,9 C 97 % 1027,0 hPa 0,0 l/m 0,0 km/h (0 Bft) NW 3,4 C 3,9 C 0,0 km/h (0 Bft)
15.10.2017 07:00 3,2 C 97 % 1026,9 hPa 0,0 l/m 0,0 km/h (0 Bft) NW 2,8 C 3,2 C 0,0 km/h (0 Bft)
15.10.2017 08:00 3,6 C 97 % 1027,1 hPa 0,0 l/m 0,0 km/h (0 Bft) NW 3,2 C 3,6 C 0,0 km/h (0 Bft)
15.10.2017 09:00 7,0 C 96 % 1027,3 hPa 0,0 l/m 0,0 km/h (0 Bft) NW 6,5 C 7,0 C 0,1 km/h (0 Bft)
15.10.2017 10:00 12,1 C 87 % 1027,2 hPa 0,0 l/m 0,5 km/h (0 Bft) NW 9,9 C 12,1 C 1,6 km/h (1 Bft)
15.10.2017 11:00 18,0 C 74 % 1026,7 hPa 0,0 l/m 1,0 km/h (0 Bft) NW 13,2 C 18,0 C 3,3 km/h (1 Bft)
15.10.2017 12:00 20,4 C 63 % 1026,5 hPa 0,0 l/m 1,8 km/h (1 Bft) NO 13,0 C 20,4 C 4,1 km/h (1 Bft)
15.10.2017 13:00 23,3 C 42 % 1026,0 hPa 0,0 l/m 3,3 km/h (1 Bft) O-NO 9,8 C 23,3 C 7,6 km/h (2 Bft)
15.10.2017 14:00 24,5 C 38 % 1025,4 hPa 0,0 l/m 2,9 km/h (1 Bft) O 9,1 C 24,5 C 7,6 km/h (2 Bft)
15.10.2017 15:00 25,2 C 38 % 1025,1 hPa 0,0 l/m 2,0 km/h (1 Bft) NO 9,7 C 25,2 C 5,3 km/h (1 Bft)
15.10.2017 16:00 25,5 C 42 % 1024,6 hPa 0,0 l/m 0,6 km/h (0 Bft) O-NO 11,5 C 25,5 C 2,8 km/h (1 Bft)
15.10.2017 17:00 23,2 C 53 % 1024,3 hPa 0,0 l/m 0,1 km/h (0 Bft) O-NO 13,0 C 23,2 C 1,2 km/h (1 Bft)
15.10.2017 18:00 17,7 C 69 % 1024,5 hPa 0,0 l/m 0,0 km/h (0 Bft) O-NO 11,9 C 17,7 C 0,9 km/h (0 Bft)
15.10.2017 19:00 13,1 C 82 % 1025,0 hPa 0,0 l/m 0,0 km/h (0 Bft) O-NO 10,2 C 13,1 C 0,3 km/h (0 Bft)
15.10.2017 20:00 10,9 C 89 % 1025,2 hPa 0,0 l/m 0,0 km/h (0 Bft) O-NO 9,1 C 10,9 C 0,1 km/h (0 Bft)
15.10.2017 21:00 9,9 C 92 % 1025,3 hPa 0,0 l/m 0,1 km/h (0 Bft) O-NO 8,6 C 9,9 C 1,2 km/h (1 Bft)
15.10.2017 22:00 9,1 C 93 % 1025,7 hPa 0,0 l/m 0,0 km/h (0 Bft) O-NO 8,0 C 9,1 C 0,1 km/h (0 Bft)
15.10.2017 23:00 8,3 C 94 % 1026,1 hPa 0,0 l/m 0,0 km/h (0 Bft) O-NO 7,4 C 8,3 C 0,0 km/h (0 Bft)
Min-Datum _ 15.10.17 15.10.17 11.10.17 - 15.10.17 - 15.10.17 15.10.17 15.10.17
_ Min-Zeit 08:00 16:10 18:01 - 23:00 - 07:55 08:00 23:00
Minimum _ 2,9 C 34 % 1018,3 hPa - 0,0 km/h (0 Bft) - 2,3 C 2,9 C 0,0 km/h (0 Bft)
Max-Datum _ 15.10.17 15.10.17 14.10.17 09.10.17 11.10.17 - 14.10.17 15.10.17 11.10.17
_ Max-Zeit 16:10 09:00 09:45 11:00 14:08 - 17:20 16:10 13:29
Maximum _ 25,9 C 98 % 1028,9 hPa 0,8 l/m 11,3 km/h
O-NO (2 Bft)
- 14,3 C 25,9 C 20,9 km/h
NO (4 Bft)
Durchschnitt _ 10,4 C 88 % 1023,7 hPa #2,5 l/m 0,9 km/h (0 Bft) N 8,2 C 10,4 C 2,6 km/h (1 Bft)